createdAt,value
2018-05-31T04:31:01.124Z,90.92
2018-05-31T04:32:01.008Z,90.92
2018-05-31T04:33:53.713Z,90.25
2018-05-31T04:34:53.594Z,89.96
2018-05-31T04:36:46.282Z,89.62
2018-05-31T04:37:46.182Z,89.43
2018-05-31T04:39:38.898Z,89.04
2018-05-31T04:40:38.763Z,88.85
2018-05-31T04:42:31.497Z,88.85
2018-05-31T04:43:31.349Z,87.79
2018-05-31T04:45:24.057Z,88.17
2018-05-31T04:46:23.939Z,88.65
2018-05-31T04:48:16.624Z,88.27
2018-05-31T04:49:16.525Z,88.56
2018-05-31T04:51:09.231Z,87.30
2018-05-31T04:52:09.109Z,87.88
2018-05-31T04:54:01.794Z,87.93
2018-05-31T04:55:01.703Z,88.02
2018-05-31T04:56:54.400Z,87.74
2018-05-31T04:57:54.335Z,87.93
2018-05-31T04:59:46.981Z,87.26
2018-05-31T05:00:46.876Z,87.16
2018-05-31T05:02:39.601Z,86.72
2018-05-31T05:03:39.464Z,86.33
2018-05-31T05:05:32.158Z,85.37
2018-05-31T05:06:32.053Z,85.56
2018-05-31T05:08:24.760Z,85.85
2018-05-31T05:09:24.646Z,84.74
2018-05-31T05:11:17.331Z,84.64
2018-05-31T05:12:17.239Z,84.54
2018-05-31T05:14:09.939Z,83.87
2018-05-31T05:15:09.825Z,83.29
2018-05-31T05:17:02.509Z,82.94
2018-05-31T05:18:02.423Z,82.46
2018-05-31T05:19:55.118Z,82.17
2018-05-31T05:20:55.022Z,81.78
2018-05-31T05:22:47.693Z,81.49
2018-05-31T05:23:47.592Z,81.44
2018-05-31T05:25:40.301Z,80.18
2018-05-31T05:26:40.179Z,80.18
2018-05-31T05:28:32.875Z,80.28
2018-05-31T05:29:32.775Z,80.76
2018-05-31T05:31:25.481Z,80.57
2018-05-31T05:32:25.412Z,79.60
2018-05-31T05:34:18.061Z,79.31
2018-05-31T05:35:17.960Z,79.64
2018-05-31T05:37:10.671Z,79.16
2018-05-31T05:38:10.552Z,78.87
2018-05-31T05:40:03.274Z,79.41
2018-05-31T05:41:03.149Z,79.64
2018-05-31T05:42:55.837Z,79.16
2018-05-31T05:43:55.746Z,79.16
2018-05-31T05:45:49.451Z,78.81
2018-05-31T05:46:49.358Z,78.09
2018-05-31T05:48:42.025Z,78.03
2018-05-31T05:49:41.929Z,77.36
2018-05-31T05:51:34.631Z,76.68
2018-05-31T05:52:34.529Z,76.62
2018-05-31T05:54:27.219Z,77.11
2018-05-31T05:55:27.124Z,76.62
2018-05-31T05:57:19.837Z,76.43
2018-05-31T05:58:19.723Z,76.33
2018-05-31T06:00:12.419Z,75.56
2018-05-31T06:01:12.320Z,74.88
2018-05-31T06:03:05.029Z,74.92
2018-05-31T06:04:04.910Z,74.92
2018-05-31T06:05:57.605Z,73.08
2018-05-31T06:06:57.509Z,72.24
2018-05-31T06:08:50.221Z,71.86
2018-05-31T06:09:50.119Z,71.95
2018-05-31T06:11:42.801Z,70.73
2018-05-31T06:12:42.700Z,70.73
2018-05-31T06:14:35.421Z,68.82
2018-05-31T06:15:35.351Z,68.51
2018-05-31T06:17:28.001Z,60.34
2018-05-31T06:18:27.896Z,56.92
2018-05-31T06:20:20.619Z,52.86
2018-05-31T06:21:20.501Z,50.37
2018-05-31T06:23:13.213Z,48.26
2018-05-31T06:24:13.118Z,46.89
2018-05-31T06:26:05.845Z,46.25
2018-05-31T06:27:05.727Z,44.73
2018-05-31T06:28:58.445Z,44.04
2018-05-31T06:29:58.353Z,44.55
2018-05-31T06:31:51.084Z,42.33
2018-05-31T06:32:50.983Z,42.32
2018-05-31T06:34:43.685Z,42.02
2018-05-31T06:35:43.592Z,42.32
2018-05-31T06:37:36.327Z,40.96
2018-05-31T06:38:36.221Z,40.58
2018-05-31T06:40:28.934Z,40.76
2018-05-31T06:41:28.848Z,41.17
2018-05-31T06:43:21.581Z,39.54
2018-05-31T06:44:21.470Z,39.15
2018-05-31T06:46:14.182Z,38.85
2018-05-31T06:47:14.088Z,39.03
2018-05-31T06:49:06.877Z,39.39
2018-05-31T06:50:06.776Z,38.74
2018-05-31T06:51:59.550Z,38.66
2018-05-31T06:52:59.403Z,37.67
2018-05-31T06:54:52.132Z,36.82
2018-05-31T06:55:52.033Z,37.12
2018-05-31T06:57:44.753Z,35.38
2018-05-31T06:58:44.667Z,34.61
2018-05-31T07:00:37.400Z,33.28
2018-05-31T07:01:37.297Z,32.92
2018-05-31T07:03:30.020Z,32.60
2018-05-31T07:04:29.949Z,32.49
2018-05-31T07:06:23.240Z,32.98
2018-05-31T07:07:23.123Z,32.31
2018-05-31T07:09:15.920Z,31.91
2018-05-31T07:10:15.739Z,32.88
2018-05-31T07:12:08.474Z,32.80
2018-05-31T07:13:08.378Z,31.62
2018-05-31T07:15:01.101Z,32.70
2018-05-31T07:16:01.021Z,32.40
2018-05-31T07:17:53.753Z,31.93
2018-05-31T07:18:53.652Z,30.85
2018-05-31T07:20:46.373Z,31.43
2018-05-31T07:21:46.313Z,31.82
2018-05-31T07:23:39.036Z,31.71
2018-05-31T07:24:38.948Z,31.54
2018-05-31T07:26:31.660Z,30.77
2018-05-31T07:27:31.574Z,30.88
2018-05-31T07:29:24.316Z,29.71
2018-05-31T07:30:24.219Z,30.00
2018-05-31T07:32:17.090Z,29.02
2018-05-31T07:33:16.873Z,29.91
2018-05-31T07:35:09.626Z,29.21
2018-05-31T07:36:09.519Z,29.57
2018-05-31T07:38:02.231Z,31.33
2018-05-31T07:39:02.149Z,31.13
2018-05-31T07:40:54.896Z,31.22
2018-05-31T07:41:54.792Z,30.83
2018-05-31T07:43:47.509Z,31.12
2018-05-31T07:44:47.482Z,31.51
2018-05-31T07:46:41.203Z,31.70
2018-05-31T07:47:41.076Z,31.13
2018-05-31T07:49:33.786Z,31.25
2018-05-31T07:50:33.701Z,30.27
2018-05-31T07:52:26.451Z,29.90
2018-05-31T07:53:26.346Z,29.60
2018-05-31T07:55:19.075Z,31.35
2018-05-31T07:56:18.987Z,31.15
2018-05-31T07:58:12.280Z,30.27
2018-05-31T07:59:12.134Z,29.78
2018-05-31T08:01:04.856Z,30.18
2018-05-31T08:02:04.779Z,29.79
2018-05-31T08:03:57.514Z,30.95
2018-05-31T08:04:57.505Z,31.60
2018-05-31T08:06:50.130Z,34.79
2018-05-31T08:07:50.046Z,34.86
2018-05-31T08:09:42.791Z,37.01
2018-05-31T08:10:42.676Z,35.94
2018-05-31T08:12:35.392Z,34.30
2018-05-31T08:13:35.308Z,34.20
2018-05-31T08:15:28.047Z,33.74
2018-05-31T08:16:27.943Z,33.54
2018-05-31T08:18:20.663Z,33.26
2018-05-31T08:19:20.575Z,33.08
2018-05-31T08:21:13.348Z,33.28
2018-05-31T08:22:13.212Z,33.39
2018-05-31T08:24:06.091Z,31.82
2018-05-31T08:25:06.003Z,31.82
2018-05-31T08:26:58.740Z,31.45
2018-05-31T08:27:58.636Z,30.57
2018-05-31T08:29:51.367Z,30.87
2018-05-31T08:30:51.313Z,30.27
2018-05-31T08:32:44.021Z,31.22
2018-05-31T08:33:43.923Z,31.90
2018-05-31T08:35:36.676Z,33.28
2018-05-31T08:36:36.573Z,33.08
2018-05-31T08:38:29.314Z,33.65
2018-05-31T08:39:29.214Z,33.74
2018-05-31T08:41:21.940Z,34.59
2018-05-31T08:42:21.859Z,34.97
2018-05-31T08:44:14.602Z,36.51
2018-05-31T08:45:14.489Z,37.40
2018-05-31T08:47:07.212Z,37.54
2018-05-31T08:48:07.140Z,38.88
2018-05-31T08:49:59.944Z,40.48
2018-05-31T08:50:59.789Z,42.13
2018-05-31T08:52:52.481Z,42.82
2018-05-31T08:53:52.407Z,43.19
2018-05-31T08:55:45.125Z,44.37
2018-05-31T08:56:45.023Z,44.54
2018-05-31T08:58:37.740Z,44.93
2018-05-31T08:59:37.647Z,44.83
2018-05-31T09:01:30.402Z,45.42
2018-05-31T09:02:30.272Z,44.34
2018-05-31T09:04:22.983Z,45.72
2018-05-31T09:05:22.892Z,45.79
2018-05-31T09:07:15.616Z,46.11
2018-05-31T09:08:15.518Z,45.79
2018-05-31T09:10:08.224Z,46.18
2018-05-31T09:11:08.132Z,46.08
2018-05-31T09:13:00.887Z,45.40
2018-05-31T09:14:00.752Z,46.08
2018-05-31T09:15:54.463Z,45.76
2018-05-31T09:16:54.364Z,45.67
2018-05-31T09:18:47.088Z,46.72
2018-05-31T09:19:46.986Z,45.84
2018-05-31T09:21:39.794Z,46.04
2018-05-31T09:22:39.711Z,46.04
2018-05-31T09:24:32.657Z,45.53
2018-05-31T09:25:32.321Z,46.11
2018-05-31T09:27:25.017Z,46.60
2018-05-31T09:28:24.930Z,47.87
2018-05-31T09:30:17.681Z,46.23
2018-05-31T09:31:17.551Z,46.53
2018-05-31T09:33:10.356Z,47.21
2018-05-31T09:34:10.268Z,46.23
2018-05-31T09:36:03.030Z,46.14
2018-05-31T09:37:02.890Z,47.09
2018-05-31T09:38:55.589Z,47.67
2018-05-31T09:39:55.495Z,46.23
2018-05-31T09:41:48.225Z,46.04
2018-05-31T09:42:48.115Z,46.01
2018-05-31T09:44:41.308Z,47.97
2018-05-31T09:45:41.222Z,46.70
2018-05-31T09:47:33.939Z,44.67
2018-05-31T09:48:33.827Z,43.38
2018-05-31T09:50:26.539Z,43.40
2018-05-31T09:51:26.438Z,43.89
2018-05-31T09:53:19.172Z,42.81
2018-05-31T09:54:19.060Z,43.30
2018-05-31T09:56:11.769Z,43.20
2018-05-31T09:57:11.672Z,42.52
2018-05-31T09:59:04.403Z,43.59
2018-05-31T10:00:04.297Z,44.38
2018-05-31T10:01:56.997Z,45.53
2018-05-31T10:02:56.905Z,45.65
2018-05-31T10:04:49.629Z,45.16
2018-05-31T10:05:49.520Z,44.87
2018-05-31T10:07:42.221Z,44.40
2018-05-31T10:08:42.135Z,43.81
2018-05-31T10:10:34.865Z,41.86
2018-05-31T10:11:34.739Z,42.35
2018-05-31T10:13:27.443Z,41.64
2018-05-31T10:14:27.348Z,42.05
2018-05-31T10:16:20.077Z,44.01
2018-05-31T10:17:19.957Z,43.23
2018-05-31T10:19:12.670Z,43.30
2018-05-31T10:20:12.579Z,43.01
2018-05-31T10:22:05.303Z,42.74
2018-05-31T10:23:05.189Z,42.74
2018-05-31T10:24:57.895Z,43.59
2018-05-31T10:25:57.797Z,44.28
2018-05-31T10:27:50.542Z,44.65
2018-05-31T10:28:50.415Z,44.45
2018-05-31T10:30:43.120Z,45.45
2018-05-31T10:31:43.029Z,45.36
2018-05-31T10:33:35.761Z,44.67
2018-05-31T10:34:35.643Z,45.36
2018-05-31T10:36:28.355Z,44.45
2018-05-31T10:37:28.251Z,44.35
2018-05-31T10:39:20.976Z,46.21
2018-05-31T10:40:20.868Z,45.53
2018-05-31T10:42:13.574Z,44.35
2018-05-31T10:43:13.476Z,45.84
2018-05-31T10:45:06.204Z,45.36
2018-05-31T10:46:06.096Z,45.37
2018-05-31T10:47:58.837Z,43.81
2018-05-31T10:48:58.708Z,43.03
2018-05-31T10:50:51.448Z,41.88
2018-05-31T10:51:51.321Z,41.97
2018-05-31T10:53:44.352Z,42.76
2018-05-31T10:54:43.944Z,41.39
2018-05-31T10:56:36.641Z,42.85
2018-05-31T10:57:36.553Z,43.34
2018-05-31T10:59:29.286Z,41.78
2018-05-31T11:00:29.165Z,42.27
2018-05-31T11:02:21.870Z,41.58
2018-05-31T11:03:21.779Z,42.07
2018-05-31T11:05:14.495Z,42.27
2018-05-31T11:06:14.390Z,42.56
2018-05-31T11:08:07.096Z,43.81
2018-05-31T11:09:07.005Z,43.62
2018-05-31T11:10:59.721Z,44.59
2018-05-31T11:11:59.619Z,44.79
2018-05-31T11:13:52.813Z,44.30
2018-05-31T11:14:52.770Z,44.13
2018-05-31T11:16:45.437Z,42.95
2018-05-31T11:17:45.330Z,42.19
2018-05-31T11:19:38.032Z,41.99
2018-05-31T11:20:37.942Z,41.72
2018-05-31T11:22:30.664Z,41.55
2018-05-31T11:23:30.556Z,40.66
2018-05-31T11:25:23.252Z,40.55
2018-05-31T11:26:23.164Z,41.72
2018-05-31T11:28:15.882Z,41.25
2018-05-31T11:29:15.788Z,40.56
2018-05-31T11:31:08.485Z,39.31
2018-05-31T11:32:08.396Z,40.47
2018-05-31T11:34:01.126Z,40.16
2018-05-31T11:35:01.013Z,40.06
2018-05-31T11:36:53.719Z,40.60
2018-05-31T11:37:53.623Z,41.58
2018-05-31T11:39:46.347Z,39.62
2018-05-31T11:40:46.242Z,40.21
2018-05-31T11:42:38.941Z,40.90
2018-05-31T11:43:38.852Z,41.09
2018-05-31T11:45:31.572Z,42.15
2018-05-31T11:46:31.473Z,42.15
2018-05-31T11:48:24.182Z,41.44
2018-05-31T11:49:24.085Z,41.93
2018-05-31T11:51:16.820Z,43.10
2018-05-31T11:52:16.710Z,43.59
2018-05-31T11:54:09.405Z,43.30
2018-05-31T11:55:09.311Z,43.99
2018-05-31T11:57:02.038Z,44.67
2018-05-31T11:58:01.927Z,44.38
2018-05-31T11:59:54.643Z,43.62
2018-05-31T12:00:54.554Z,44.30
2018-05-31T12:02:47.272Z,42.66
2018-05-31T12:03:47.178Z,41.49
2018-05-31T12:05:39.870Z,40.70
2018-05-31T12:06:39.779Z,40.78
2018-05-31T12:08:32.516Z,42.25
2018-05-31T12:09:32.388Z,41.97
2018-05-31T12:11:25.094Z,42.85
2018-05-31T12:12:25.008Z,42.56
2018-05-31T12:14:17.718Z,42.17
2018-05-31T12:15:17.605Z,42.15
2018-05-31T12:17:10.316Z,42.25
2018-05-31T12:18:10.214Z,42.25
2018-05-31T12:20:02.935Z,41.15
2018-05-31T12:21:02.829Z,41.42
2018-05-31T12:22:55.526Z,42.11
2018-05-31T12:23:55.437Z,41.89
2018-05-31T12:25:48.164Z,42.09
2018-05-31T12:26:48.039Z,42.65
2018-05-31T12:28:40.742Z,43.92
2018-05-31T12:29:40.651Z,43.55
2018-05-31T12:31:33.374Z,41.80
2018-05-31T12:32:33.264Z,41.99
2018-05-31T12:34:25.986Z,42.77
2018-05-31T12:35:25.949Z,42.65
2018-05-31T12:37:18.623Z,43.14
2018-05-31T12:38:18.552Z,42.73
2018-05-31T12:40:11.262Z,42.73
2018-05-31T12:41:11.156Z,43.22
2018-05-31T12:43:03.928Z,43.71
2018-05-31T12:44:03.755Z,43.99
2018-05-31T12:45:56.495Z,43.24
2018-05-31T12:46:56.375Z,43.04
2018-05-31T12:48:50.085Z,43.95
2018-05-31T12:49:49.976Z,42.48
2018-05-31T12:51:42.676Z,42.38
2018-05-31T12:52:42.588Z,41.99
2018-05-31T12:54:35.304Z,42.97
2018-05-31T12:55:35.195Z,42.60
2018-05-31T12:57:27.893Z,42.11
2018-05-31T12:58:27.841Z,42.11
2018-05-31T13:00:20.528Z,42.03
2018-05-31T13:01:20.410Z,41.82
2018-05-31T13:03:13.104Z,42.42
2018-05-31T13:04:13.008Z,42.69
2018-05-31T13:06:05.820Z,41.25
2018-05-31T13:07:05.636Z,40.76
2018-05-31T13:08:58.318Z,41.74
2018-05-31T13:09:58.229Z,41.15
2018-05-31T13:11:50.946Z,41.56
2018-05-31T13:12:50.835Z,41.36
2018-05-31T13:14:43.535Z,41.25
2018-05-31T13:15:43.447Z,42.54
2018-05-31T13:17:36.183Z,40.86
2018-05-31T13:18:36.062Z,40.66
2018-05-31T13:20:28.762Z,41.15
2018-05-31T13:21:28.668Z,41.83
2018-05-31T13:23:21.379Z,43.28
2018-05-31T13:24:21.275Z,43.38
2018-05-31T13:26:13.981Z,42.89
2018-05-31T13:27:13.884Z,42.79
2018-05-31T13:29:06.600Z,43.08
2018-05-31T13:30:06.489Z,43.40
2018-05-31T13:31:59.202Z,41.15
2018-05-31T13:32:59.102Z,40.95
2018-05-31T13:34:51.824Z,41.15
2018-05-31T13:35:51.707Z,41.64
2018-05-31T13:37:44.401Z,41.74
2018-05-31T13:38:44.311Z,41.83
2018-05-31T13:40:37.040Z,41.44
2018-05-31T13:41:36.919Z,41.44
2018-05-31T13:43:29.621Z,41.35
2018-05-31T13:44:29.530Z,42.13
2018-05-31T13:46:22.247Z,41.35
2018-05-31T13:47:22.182Z,41.96
2018-05-31T13:49:14.852Z,41.39
2018-05-31T13:50:14.750Z,41.19
2018-05-31T13:52:07.486Z,40.80
2018-05-31T13:53:07.523Z,40.50
2018-05-31T13:55:00.063Z,40.80
2018-05-31T13:55:59.973Z,40.80
2018-05-31T13:57:52.693Z,41.09
2018-05-31T13:58:52.581Z,39.80
2018-05-31T14:00:45.297Z,39.72
2018-05-31T14:01:45.220Z,39.43
2018-05-31T14:03:37.932Z,38.45
2018-05-31T14:04:37.830Z,38.75
2018-05-31T14:06:30.544Z,37.67
2018-05-31T14:07:30.448Z,36.69
2018-05-31T14:09:23.256Z,37.37
2018-05-31T14:10:23.101Z,37.08
2018-05-31T14:12:15.819Z,38.26
2018-05-31T14:13:15.736Z,37.77
2018-05-31T14:15:08.620Z,38.73
2018-05-31T14:18:14.784Z,39.70
2018-05-31T14:18:48.396Z,39.61
2018-05-31T14:20:41.247Z,40.39
2018-05-31T14:21:41.044Z,40.37
2018-05-31T14:23:34.399Z,41.44
2018-05-31T14:24:33.674Z,41.15
2018-05-31T14:26:26.400Z,41.64
2018-05-31T14:27:26.371Z,42.32
2018-05-31T14:29:18.951Z,42.30
2018-05-31T14:30:18.889Z,42.79
2018-05-31T14:32:11.590Z,43.75
2018-05-31T14:33:11.540Z,43.57
2018-05-31T14:35:04.175Z,43.96
2018-05-31T14:36:04.076Z,43.75
2018-05-31T14:37:56.788Z,44.43
2018-05-31T14:38:56.734Z,43.95
2018-05-31T14:40:49.406Z,44.53
2018-05-31T14:41:49.295Z,44.82
2018-05-31T14:43:42.009Z,45.31
2018-05-31T14:44:41.894Z,44.51
2018-05-31T14:46:34.627Z,48.41
2018-05-31T14:47:34.499Z,49.76
2018-05-31T14:49:27.276Z,52.06
2018-05-31T14:50:27.157Z,53.38
2018-05-31T14:52:19.843Z,55.88
2018-05-31T14:53:20.426Z,56.62
2018-05-31T14:55:12.467Z,57.86
2018-05-31T14:56:12.360Z,57.96
2018-05-31T14:58:05.021Z,57.47
2018-05-31T14:59:04.929Z,57.76
2018-05-31T15:00:57.658Z,57.96
2018-05-31T15:01:57.531Z,58.51
2018-05-31T15:03:50.391Z,58.61
2018-05-31T15:04:50.140Z,59.48
2018-05-31T15:06:42.859Z,62.29
2018-05-31T15:07:42.741Z,61.88
2018-05-31T15:09:35.437Z,64.62
2018-05-31T15:10:35.454Z,66.17
2018-05-31T15:12:28.094Z,68.21
2018-05-31T15:13:28.000Z,69.67
2018-05-31T15:15:20.783Z,72.86
2018-05-31T15:16:20.542Z,73.11
2018-05-31T15:18:13.389Z,76.89
2018-05-31T15:19:13.226Z,77.63
2018-05-31T15:21:05.835Z,80.44
2018-05-31T15:22:05.737Z,76.56
2018-05-31T15:23:58.481Z,75.11
2018-05-31T15:24:58.339Z,75.79
2018-05-31T15:26:51.518Z,76.46
2018-05-31T15:27:51.424Z,82.76
2018-05-31T15:29:44.141Z,82.08
2018-05-31T15:30:44.021Z,81.83
2018-05-31T15:32:36.720Z,76.51
2018-05-31T15:33:36.619Z,78.83
2018-05-31T15:35:29.373Z,78.11
2018-05-31T15:36:29.227Z,77.98
2018-05-31T15:38:21.918Z,80.59
2018-05-31T15:39:21.912Z,81.17
2018-05-31T15:41:14.988Z,81.17
2018-05-31T15:42:14.607Z,80.98
2018-05-31T15:44:07.406Z,82.23
2018-05-31T15:45:07.206Z,81.17
2018-05-31T15:46:59.953Z,82.72
2018-05-31T15:47:59.840Z,79.33
2018-05-31T15:49:52.826Z,80.07
2018-05-31T15:50:52.476Z,78.91
2018-05-31T15:52:45.329Z,78.03
2018-05-31T15:53:45.071Z,74.85
2018-05-31T15:55:37.779Z,76.84
2018-05-31T15:56:37.667Z,76.45
2018-05-31T15:58:30.391Z,76.64
2018-05-31T15:59:30.272Z,75.29
2018-05-31T16:01:22.960Z,75.78
2018-05-31T16:02:22.861Z,75.68
2018-05-31T16:04:15.590Z,76.93
2018-05-31T16:05:15.459Z,76.74
2018-05-31T16:07:08.150Z,76.55
2018-05-31T16:08:08.056Z,77.55
2018-05-31T16:10:00.822Z,77.94
2018-05-31T16:11:00.941Z,76.39
2018-05-31T16:12:53.362Z,77.94
2018-05-31T16:13:53.263Z,75.04
2018-05-31T16:15:45.987Z,76.97
2018-05-31T16:16:46.045Z,74.27
2018-05-31T16:18:38.550Z,74.75
2018-05-31T16:19:38.459Z,75.04
2018-05-31T16:21:31.342Z,73.43
2018-05-31T16:22:31.057Z,73.33
2018-05-31T16:24:23.747Z,73.63
2018-05-31T16:25:23.650Z,72.66
2018-05-31T16:27:16.366Z,71.53
2018-05-31T16:28:16.248Z,72.79
2018-05-31T16:30:08.937Z,71.95
2018-05-31T16:31:08.842Z,72.44
2018-05-31T16:33:01.561Z,73.41
2018-05-31T16:34:01.445Z,71.56
2018-05-31T16:35:54.135Z,70.44
2018-05-31T16:36:54.036Z,67.44
2018-05-31T16:38:46.752Z,69.95
2018-05-31T16:39:46.700Z,71.80
2018-05-31T16:41:39.332Z,72.34
2018-05-31T16:42:39.234Z,72.53
2018-05-31T16:44:31.951Z,72.92
2018-05-31T16:45:31.835Z,74.38
2018-05-31T16:47:24.530Z,71.92
2018-05-31T16:48:24.436Z,74.47
2018-05-31T16:50:17.165Z,72.34
2018-05-31T16:51:17.029Z,72.89
2018-05-31T16:53:09.722Z,74.88
2018-05-31T16:54:09.732Z,72.85
2018-05-31T16:56:02.348Z,72.66
2018-05-31T16:57:02.233Z,72.75
2018-05-31T16:58:54.931Z,71.69
2018-05-31T16:59:54.823Z,72.95
2018-05-31T17:01:47.551Z,72.27
2018-05-31T17:02:47.423Z,72.27
2018-05-31T17:04:40.160Z,71.20
2018-05-31T17:05:40.015Z,70.92
2018-05-31T17:07:32.738Z,72.33
2018-05-31T17:08:32.616Z,71.50
2018-05-31T17:10:25.322Z,72.72
2018-05-31T17:11:25.216Z,72.72
2018-05-31T17:13:18.424Z,72.81
2018-05-31T17:14:18.302Z,72.04
2018-05-31T17:16:10.994Z,73.88
2018-05-31T17:17:10.891Z,74.52
2018-05-31T17:19:03.611Z,73.07
2018-05-31T17:20:03.499Z,73.65
2018-05-31T17:21:56.186Z,75.20
2018-05-31T17:22:56.087Z,75.74
2018-05-31T17:24:48.808Z,76.12
2018-05-31T17:25:48.677Z,75.84
2018-05-31T17:27:41.372Z,76.51
2018-05-31T17:28:41.268Z,76.70
2018-05-31T17:30:34.002Z,76.32
2018-05-31T17:31:33.869Z,76.51
2018-05-31T17:33:26.587Z,77.76
2018-05-31T17:34:26.564Z,77.57
2018-05-31T17:36:19.181Z,77.92
2018-05-31T17:37:19.059Z,78.41
2018-05-31T17:39:11.748Z,78.69
2018-05-31T17:40:11.645Z,79.08
2018-05-31T17:42:04.365Z,78.50
2018-05-31T17:43:04.736Z,79.47
2018-05-31T17:44:56.939Z,78.69
2018-05-31T17:45:56.845Z,78.50
2018-05-31T17:47:49.632Z,79.08
2018-05-31T17:48:49.507Z,79.85
2018-05-31T17:50:42.198Z,79.27
2018-05-31T17:51:42.115Z,80.00
2018-05-31T17:53:34.818Z,80.43
2018-05-31T17:54:34.697Z,81.49
2018-05-31T17:56:27.391Z,80.39
2018-05-31T17:57:27.290Z,80.30
2018-05-31T17:59:20.009Z,80.43
2018-05-31T18:00:19.894Z,80.24
2018-05-31T18:02:12.570Z,80.72
2018-05-31T18:03:12.476Z,80.78
2018-05-31T18:05:05.195Z,81.74
2018-05-31T18:06:05.065Z,81.45
2018-05-31T18:07:57.809Z,80.68
2018-05-31T18:08:57.714Z,80.91
2018-05-31T18:10:50.575Z,80.97
2018-05-31T18:11:50.305Z,80.97
2018-05-31T18:13:42.988Z,81.35
2018-05-31T18:14:42.895Z,81.74
2018-05-31T18:16:35.613Z,81.93
2018-05-31T18:17:35.489Z,81.84
2018-05-31T18:19:28.180Z,83.09
2018-05-31T18:20:28.077Z,82.03
2018-05-31T18:22:20.803Z,81.45
2018-05-31T18:23:20.674Z,81.93
2018-05-31T18:25:13.360Z,82.81
2018-05-31T18:26:13.259Z,83.58
2018-05-31T18:28:05.984Z,83.29
2018-05-31T18:29:05.859Z,83.67
2018-05-31T18:30:58.547Z,83.77
2018-05-31T18:31:58.448Z,83.34
2018-05-31T18:33:51.161Z,83.29
2018-05-31T18:34:51.051Z,83.96
2018-05-31T18:36:43.731Z,83.67
2018-05-31T18:37:43.628Z,83.58
2018-05-31T18:39:36.341Z,83.73
2018-05-31T18:40:36.227Z,84.11
2018-05-31T18:42:28.916Z,84.21
2018-05-31T18:43:28.822Z,83.53
2018-05-31T18:45:21.539Z,83.83
2018-05-31T18:46:21.408Z,84.01
2018-05-31T18:48:14.092Z,84.41
2018-05-31T18:49:13.995Z,84.89
2018-05-31T18:51:06.713Z,85.08
2018-05-31T18:52:06.589Z,84.69
2018-05-31T18:53:59.275Z,85.46
2018-05-31T18:54:59.176Z,85.56
2018-05-31T18:56:52.076Z,84.31
2018-05-31T18:57:51.763Z,84.59
2018-05-31T18:59:44.447Z,84.21
2018-05-31T19:00:44.349Z,84.79
2018-05-31T19:02:37.216Z,84.69
2018-05-31T19:03:36.943Z,84.59
2018-05-31T19:05:29.636Z,84.31
2018-05-31T19:06:29.539Z,84.89
2018-05-31T19:08:22.304Z,84.50
2018-05-31T19:09:22.215Z,84.79
2018-05-31T19:11:14.886Z,85.46
2018-05-31T19:12:14.750Z,85.03
2018-05-31T19:14:07.577Z,85.71
2018-05-31T19:15:07.435Z,85.52
2018-05-31T19:17:00.127Z,86.10
2018-05-31T19:18:00.026Z,86.29
2018-05-31T19:19:52.758Z,86.48
2018-05-31T19:20:52.611Z,86.19
2018-05-31T19:22:45.332Z,86.68
2018-05-31T19:23:45.274Z,86.77
2018-05-31T19:25:37.935Z,86.77
2018-05-31T19:26:37.917Z,87.06
2018-05-31T19:28:30.520Z,87.35
2018-05-31T19:29:30.475Z,86.77
2018-05-31T19:31:23.143Z,87.26
2018-05-31T19:32:23.049Z,87.06
2018-05-31T19:34:15.689Z,87.26
2018-05-31T19:35:15.588Z,86.68
2018-05-31T19:37:08.324Z,86.29
2018-05-31T19:38:08.198Z,86.68
2018-05-31T19:40:00.892Z,87.26
2018-05-31T19:41:00.798Z,87.16
2018-05-31T19:42:53.560Z,87.54
2018-05-31T19:43:53.408Z,88.12
2018-05-31T19:45:46.155Z,88.22
2018-05-31T19:46:45.988Z,88.31
2018-05-31T19:48:38.734Z,88.51
2018-05-31T19:49:38.639Z,87.64
2018-05-31T19:51:31.577Z,86.96
2018-05-31T19:52:31.313Z,87.35
2018-05-31T19:54:24.901Z,87.16
2018-05-31T19:55:23.878Z,87.35
2018-05-31T19:57:16.481Z,87.93
2018-05-31T19:58:16.519Z,87.88
2018-05-31T20:00:09.325Z,87.30
2018-05-31T20:01:09.088Z,87.06
2018-05-31T20:03:01.741Z,87.50
2018-05-31T20:04:01.643Z,87.60
2018-05-31T20:05:54.465Z,87.98
2018-05-31T20:06:54.150Z,87.98
2018-05-31T20:08:46.860Z,88.46
2018-05-31T20:09:46.741Z,88.17
2018-05-31T20:11:39.450Z,89.23
2018-05-31T20:12:39.364Z,89.53
2018-05-31T20:14:32.103Z,88.75
2018-05-31T20:15:31.922Z,88.85
2018-05-31T20:17:24.624Z,89.43
2018-05-31T20:18:24.499Z,89.72
2018-05-31T20:20:17.197Z,89.91
2018-05-31T20:21:17.091Z,89.09
2018-05-31T20:23:09.798Z,89.53
2018-05-31T20:24:09.684Z,90.20
2018-05-31T20:26:02.374Z,90.10
2018-05-31T20:27:02.270Z,89.96
2018-05-31T20:28:54.992Z,90.20
2018-05-31T20:29:54.857Z,90.10
2018-05-31T20:31:47.551Z,90.39
2018-05-31T20:32:47.461Z,90.00
2018-05-31T20:34:40.163Z,90.20
2018-05-31T20:35:40.047Z,89.62
2018-05-31T20:37:32.732Z,90.30
2018-05-31T20:38:32.628Z,89.96
2018-05-31T20:40:25.346Z,89.91
2018-05-31T20:41:25.218Z,89.81
2018-05-31T20:43:17.918Z,89.96
2018-05-31T20:44:17.803Z,89.86
2018-05-31T20:46:10.523Z,90.06
2018-05-31T20:47:10.391Z,90.44
2018-05-31T20:49:03.076Z,90.44
2018-05-31T20:50:02.973Z,90.92
2018-05-31T20:51:56.067Z,90.25
2018-05-31T20:52:55.582Z,90.34
2018-05-31T20:54:48.270Z,89.77
2018-05-31T20:55:48.170Z,90.54
2018-05-31T20:57:40.912Z,90.44
2018-05-31T20:58:40.780Z,89.96
2018-05-31T21:00:33.472Z,90.64
2018-05-31T21:01:33.368Z,89.86
2018-05-31T21:03:26.081Z,90.44
2018-05-31T21:04:25.955Z,90.44
2018-05-31T21:06:18.636Z,91.02
2018-05-31T21:07:18.537Z,90.73
2018-05-31T21:09:11.245Z,90.73
2018-05-31T21:10:11.130Z,90.73
2018-05-31T21:12:03.825Z,91.02
2018-05-31T21:13:03.723Z,90.44
2018-05-31T21:14:56.434Z,90.54
2018-05-31T21:15:56.316Z,90.34
2018-05-31T21:17:49.147Z,90.92
2018-05-31T21:18:48.906Z,90.83
2018-05-31T21:20:41.612Z,90.44
2018-05-31T21:21:41.494Z,91.02
2018-05-31T21:23:34.176Z,91.02
2018-05-31T21:24:34.084Z,91.41
2018-05-31T21:26:26.789Z,91.60
2018-05-31T21:27:26.665Z,91.31
2018-05-31T21:29:19.383Z,91.75
2018-05-31T21:30:19.252Z,91.65
2018-05-31T21:32:11.965Z,91.84
2018-05-31T21:33:11.833Z,92.13
2018-05-31T21:35:04.518Z,92.03
2018-05-31T21:36:04.424Z,92.52
2018-05-31T21:37:57.156Z,93.29
2018-05-31T21:38:57.029Z,93.19
2018-05-31T21:40:49.714Z,92.71
2018-05-31T21:41:49.613Z,92.80
2018-05-31T21:43:42.330Z,92.80
2018-05-31T21:44:42.192Z,92.61
2018-05-31T21:46:34.881Z,93.00
2018-05-31T21:47:34.791Z,93.77
2018-05-31T21:49:27.495Z,93.48
2018-05-31T21:50:27.372Z,93.57
2018-05-31T21:52:20.089Z,93.57
2018-05-31T21:53:19.962Z,93.38
2018-05-31T21:55:12.677Z,93.19
2018-05-31T21:56:12.548Z,93.77
2018-05-31T21:58:05.263Z,93.77
2018-05-31T21:59:05.136Z,94.15
